ADDS METAR Data INFO
IDs: Format: Raw Decoded Include TAF

Data at: 0047 UTC 22 Oct 2017

KEYW 212353Z 08007KT 10SM -RA FEW043 SCT085 BKN110 25/24 A3001 RMK AO2 RAB2258 SLP162 P0006 60006 T02500239 10306 20250 50009
KEYW 212253Z 09017G27KT 10SM FEW021 SCT030 SCT035 28/25 A3001 RMK AO2 PK WND 10027/2253 SLP163 T02830250
KEYW 212153Z 09011G20KT 10SM FEW019 29/24 A2999 RMK AO2 SLP156 T02890244
KEYW 212053Z 08014G21KT 10SM FEW021 FEW030 SCT060 29/24 A2998 RMK AO2 SLP153 T02890244 55007
KEYW 211953Z 09015G21KT 10SM SCT022 29/24 A2998 RMK AO2 SLP152 T02890244
KEYW 211853Z 09014G23KT 10SM FEW023 30/24 A2998 RMK AO2 SLP152 T03000244
KEYW 211753Z 10016G23KT 10SM CLR 30/24 A3001 RMK AO2 SLP161 T03000244 10306 20278 58009
KEYW 211653Z 10019G24KT 10SM CLR 30/24 A3002 RMK AO2 SLP167 T03000239
KEYW 211553Z 09015G24KT 10SM FEW023 31/24 A3004 RMK AO2 SLP172 T03060244
KEYW 211453Z 08014G19KT 10SM FEW025 30/24 A3003 RMK AO2 SLP170 T03000239 51017
KEYW 211353Z 09013G20KT 10SM SCT023 SCT030 BKN042 29/24 A3002 RMK AO2 SLP166 T02890239
KEYW 211342Z 08012G18KT 10SM BKN023 BKN029 29/24 A3002 RMK AO2 T02890239
KEYW 211253Z 09012KT 10SM FEW026 29/23 A3001 RMK AO2 SLP161 T02890233
KEYW 211153Z 08010KT 10SM FEW024 28/23 A2998 RMK AO2 SLP153 60000 T02780233 10278 20272 53012
KEYW 211053Z AUTO 08009KT 10SM FEW024 27/24 A2997 RMK AO2 SLP149 T02720239
KEYW 211014Z AUTO 05006KT 10SM SCT021 SCT025 BKN036 27/24 A2996 RMK AO2 T02720244
KEYW 210953Z AUTO 07007KT 10SM BKN022 BKN026 27/24 A2996 RMK AO2 SLP143 T02720244
KEYW 210941Z AUTO 07006KT 10SM BKN020 BKN028 27/24 A2995 RMK AO2 T02720244
KEYW 210853Z AUTO 07009KT 10SM SCT022 SCT026 BKN055 27/24 A2995 RMK AO2 SLP141 60000 T02720244 56011
KEYW 210753Z AUTO 08009G15KT 10SM FEW026 27/24 A2996 RMK AO2 SLP143 T02720244
KEYW 210653Z AUTO 08010G16KT 10SM FEW022 FEW046 27/24 A2996 RMK AO2 RAB39E49 SLP146 P0000 T02720239
KEYW 210553Z AUTO 07010G17KT 10SM SCT046 28/24 A2998 RMK AO2 SLP151 T02780244 10283 20278 58008
KEYW 210453Z AUTO 07011G20KT 10SM FEW022 SCT060 28/24 A2999 RMK AO2 SLP156 T02780244 403060261
KEYW 210353Z AUTO 08010KT 10SM CLR 28/24 A3000 RMK AO2 SLP160 T02780239
KEYW 210253Z AUTO 07009G15KT 10SM FEW024 28/24 A3000 RMK AO2 SLP160 T02780239 51009
KEYW 210153Z AUTO 07010KT 10SM CLR 28/24 A3000 RMK AO2 SLP157 T02780239
KEYW 210053Z 08011KT 10SM CLR 28/24 A2999 RMK AO2 SLP155 T02830239
KEYW 202353Z 08008KT 10SM FEW024 28/23 A2998 RMK AO2 SLP150 60000 T02830233 10306 20283 53012
KEYW 202329Z 08011KT 10SM SCT024 28/23 A2997 RMK AO2 T02830233
KEYW 202311Z 07009KT 10SM FEW003 BKN024 BKN032 28/24 A2996 RMK AO2 T02830239
KEYW 202253Z 09009G16KT 10SM BKN023 BKN029 28/24 A2996 RMK AO2 SLP144 T02830239
KEYW 202153Z 09011KT 10SM FEW024 29/24 A2994 RMK AO2 SLP139 T02890239
KEYW 202053Z 09013KT 10SM FEW023 29/24 A2994 RMK AO2 RAB02E14 SLP138 P0000 60000 T02940239 56015
KEYW 201953Z 09016G21KT 10SM FEW027 FEW110 31/24 A2995 RMK AO2 SLP142 T03060244 $
KEYW 201931Z 09012G22KT 10SM FEW023 SCT028 BKN110 31/24 A2995 RMK AO2 T03060239
KEYW 201920Z 09017G21KT 10SM SCT023 BKN028 BKN110 29/24 A2995 RMK AO2 T02940239
KEYW 201853Z 09009G19KT 060V120 10SM FEW025 SCT043 BKN110 30/24 A2996 RMK AO2 SLP145 T03000244
KEYW 201753Z 10013KT 10SM FEW023 SCT070 BKN110 29/24 A2998 RMK AO2 SLP153 T02940244 10306 20272 58015
KEYW 201653Z 09015G21KT 10SM SCT025 30/23 A3001 RMK AO2 SLP162 T03000233
KEYW 201553Z 05008G15KT 10SM SCT023 SCT028 31/24 A3002 RMK AO2 SLP166 T03060244
KEYW 201507Z 05009KT 10SM SCT023 SCT028 29/24 A3003 RMK AO2 T02940239
KEYW 201500Z 04010G16KT 10SM BKN023 BKN028 29/24 A3003 RMK AO2 T02940244
KEYW 201453Z 05011KT 10SM SCT023 29/24 A3003 RMK AO2 SLP168 T02940244 51010
KEYW 201353Z 04010KT 10SM FEW015 29/24 A3003 RMK AO2 SLP168 T02890244
KEYW 201253Z 04008G14KT 10SM FEW015 28/24 A3001 RMK AO2 SLP162 T02780244